createdAt,value
2018-09-12T00:00:27.886Z,1.83
2018-09-12T00:02:57.551Z,2.27
2018-09-12T00:05:27.510Z,1.77
2018-09-12T00:07:57.039Z,2.90
2018-09-12T00:10:26.785Z,2.07
2018-09-12T00:12:56.905Z,2.93
2018-09-12T00:15:26.507Z,1.63
2018-09-12T00:17:56.518Z,3.27
2018-09-12T00:20:26.173Z,1.83
2018-09-12T00:22:56.151Z,1.87
2018-09-12T00:25:25.709Z,2.40
2018-09-12T00:27:55.328Z,2.27
2018-09-12T00:30:25.201Z,3.70
2018-09-12T00:32:54.919Z,2.40
2018-09-12T00:35:24.815Z,2.43
2018-09-12T00:37:54.508Z,2.70
2018-09-12T00:40:24.148Z,2.47
2018-09-12T00:42:57.827Z,2.00
2018-09-12T00:45:32.657Z,2.03
2018-09-12T00:48:05.833Z,2.33
2018-09-12T00:50:40.284Z,2.60
2018-09-12T00:53:12.631Z,2.53
2018-09-12T00:55:42.542Z,2.33
2018-09-12T00:58:15.001Z,2.63
2018-09-12T01:00:46.878Z,3.47
2018-09-12T01:03:19.160Z,4.20
2018-09-12T01:05:50.854Z,1.87
2018-09-12T01:08:22.976Z,2.40
2018-09-12T01:10:57.089Z,2.17
2018-09-12T01:13:30.726Z,1.90
2018-09-12T01:16:03.217Z,2.00
2018-09-12T01:18:35.738Z,2.90
2018-09-12T01:21:11.280Z,2.07
2018-09-12T01:23:42.511Z,2.40
2018-09-12T01:26:14.830Z,3.00
2018-09-12T01:28:48.414Z,2.53
2018-09-12T01:31:18.660Z,2.43
2018-09-12T01:33:50.232Z,2.80
2018-09-12T01:36:23.482Z,2.90
2018-09-12T01:38:54.309Z,2.70
2018-09-12T01:41:25.377Z,2.53
2018-09-12T01:43:56.706Z,2.30
2018-09-12T01:46:26.679Z,2.43
2018-09-12T01:48:57.958Z,1.87
2018-09-12T01:51:31.849Z,3.40
2018-09-12T01:54:04.688Z,1.87
2018-09-12T01:56:36.283Z,2.23
2018-09-12T01:59:11.191Z,2.90
2018-09-12T02:01:46.699Z,3.27
2018-09-12T02:04:21.248Z,2.80
2018-09-12T02:06:55.323Z,2.73
2018-09-12T02:09:29.764Z,2.23
2018-09-12T02:12:03.036Z,2.60
2018-09-12T02:14:37.160Z,2.40
2018-09-12T02:17:09.084Z,3.20
2018-09-12T02:19:39.560Z,1.90
2018-09-12T02:22:15.287Z,2.17
2018-09-12T02:24:48.659Z,2.53
2018-09-12T02:27:20.035Z,2.67
2018-09-12T02:29:50.166Z,4.40
2018-09-12T02:32:23.350Z,5.03
2018-09-12T02:34:55.748Z,2.40
2018-09-12T02:37:28.449Z,2.60
2018-09-12T02:40:00.174Z,2.77
2018-09-12T02:42:29.872Z,3.10
2018-09-12T02:45:03.260Z,2.70
2018-09-12T02:47:36.767Z,2.10
2018-09-12T02:50:12.708Z,3.00
2018-09-12T02:52:46.485Z,3.47
2018-09-12T02:55:19.678Z,3.37
2018-09-12T02:57:51.682Z,3.87
2018-09-12T03:00:24.359Z,2.60
2018-09-12T03:02:58.579Z,2.67
2018-09-12T03:05:34.085Z,2.60
2018-09-12T03:08:06.045Z,2.57
2018-09-12T03:10:39.838Z,2.30
2018-09-12T03:13:14.268Z,2.60
2018-09-12T03:15:47.474Z,2.93
2018-09-12T03:18:21.330Z,2.90
2018-09-12T03:20:53.965Z,3.07
2018-09-12T03:23:24.797Z,2.53
2018-09-12T03:26:02.177Z,3.30
2018-09-12T03:28:34.192Z,3.40
2018-09-12T03:31:07.970Z,2.13
2018-09-12T03:33:41.701Z,2.77
2018-09-12T03:36:17.499Z,2.23
2018-09-12T03:38:47.697Z,2.60
2018-09-12T03:41:22.020Z,3.73
2018-09-12T03:43:55.895Z,2.70
2018-09-12T03:46:30.427Z,3.50
2018-09-12T03:49:04.420Z,3.57
2018-09-12T03:51:39.379Z,3.30
2018-09-12T03:54:12.172Z,3.33
2018-09-12T03:56:42.880Z,3.50
2018-09-12T03:59:13.013Z,4.27
2018-09-12T04:01:47.817Z,3.83
2018-09-12T04:04:21.435Z,2.93
2018-09-12T04:06:56.485Z,2.67
2018-09-12T04:09:28.946Z,4.20
2018-09-12T04:11:58.678Z,4.50
2018-09-12T04:14:32.302Z,4.57
2018-09-12T04:17:02.992Z,4.00
2018-09-12T04:19:36.735Z,4.87
2018-09-12T04:22:06.403Z,5.00
2018-09-12T04:24:40.771Z,5.70
2018-09-12T04:27:11.054Z,4.90
2018-09-12T04:29:44.332Z,4.53
2018-09-12T04:32:19.222Z,5.17
2018-09-12T04:34:52.788Z,6.50
2018-09-12T04:37:28.725Z,6.07
2018-09-12T04:40:14.046Z,6.70
2018-09-12T04:42:44.968Z,6.30
2018-09-12T04:45:14.639Z,9.37
2018-09-12T04:47:46.097Z,7.97
2018-09-12T04:50:21.806Z,9.90
2018-09-12T04:52:53.802Z,7.80
2018-09-12T04:55:27.390Z,9.37
2018-09-12T04:57:58.499Z,8.60
2018-09-12T05:00:28.557Z,8.83
2018-09-12T05:02:58.358Z,9.80
2018-09-12T05:05:33.291Z,9.50
2018-09-12T05:08:05.753Z,10.33
2018-09-12T05:10:35.971Z,11.80
2018-09-12T05:13:07.277Z,10.83
2018-09-12T05:15:38.099Z,11.90
2018-09-12T05:18:08.364Z,12.93
2018-09-12T05:20:41.858Z,12.60
2018-09-12T05:23:14.503Z,13.20
2018-09-12T05:25:47.760Z,13.10
2018-09-12T05:28:20.258Z,12.90
2018-09-12T05:30:52.100Z,12.77
2018-09-12T05:33:27.185Z,13.80
2018-09-12T05:36:01.320Z,14.80
2018-09-12T05:38:31.748Z,15.30
2018-09-12T05:41:02.076Z,15.03
2018-09-12T05:43:33.452Z,14.60
2018-09-12T05:46:06.528Z,13.87
2018-09-12T05:48:40.171Z,13.20
2018-09-12T05:51:15.121Z,13.40
2018-09-12T05:53:45.614Z,12.20
2018-09-12T05:56:15.523Z,12.43
2018-09-12T05:58:44.898Z,11.83
2018-09-12T06:01:14.277Z,11.30
2018-09-12T06:03:44.348Z,9.87
2018-09-12T06:06:13.668Z,9.63
2018-09-12T06:08:43.038Z,9.43
2018-09-12T06:11:14.109Z,8.93
2018-09-12T06:13:43.514Z,9.00
2018-09-12T06:16:12.763Z,7.50
2018-09-12T06:18:42.167Z,8.67
2018-09-12T06:21:11.461Z,7.00
2018-09-12T06:23:40.847Z,6.30
2018-09-12T06:26:10.783Z,7.93
2018-09-12T06:28:40.102Z,7.17
2018-09-12T06:31:09.409Z,7.23
2018-09-12T06:33:39.400Z,6.07
2018-09-12T06:36:08.831Z,6.27
2018-09-12T06:38:38.315Z,6.83
2018-09-12T06:41:09.311Z,5.93
2018-09-12T06:43:39.627Z,6.00
2018-09-12T06:46:08.982Z,6.03
2018-09-12T06:48:38.967Z,6.10
2018-09-12T06:51:08.395Z,6.67
2018-09-12T06:53:37.940Z,5.43
2018-09-12T06:56:08.327Z,5.80
2018-09-12T06:58:37.586Z,7.17
2018-09-12T07:01:07.505Z,5.50
2018-09-12T07:03:36.901Z,5.53
2018-09-12T07:06:06.201Z,4.80
2018-09-12T07:08:35.674Z,5.10
2018-09-12T07:11:05.718Z,6.00
2018-09-12T07:13:35.005Z,7.10
2018-09-12T07:16:04.424Z,5.60
2018-09-12T07:18:33.890Z,5.83
2018-09-12T07:21:04.056Z,6.33
2018-09-12T07:23:33.450Z,4.73
2018-09-12T07:26:02.939Z,5.50
2018-09-12T07:28:32.407Z,6.10
2018-09-12T07:31:01.823Z,5.70
2018-09-12T07:33:31.321Z,5.60
2018-09-12T07:36:00.858Z,5.53
2018-09-12T07:38:30.563Z,4.97
2018-09-12T07:40:59.974Z,7.20
2018-09-12T07:43:29.354Z,5.30
2018-09-12T07:45:58.902Z,5.27
2018-09-12T07:48:28.483Z,5.57
2018-09-12T07:50:58.009Z,6.70
2018-09-12T07:53:27.527Z,5.80
2018-09-12T07:55:57.831Z,5.13
2018-09-12T07:58:27.416Z,4.80
2018-09-12T08:00:57.048Z,3.90
2018-09-12T08:03:26.601Z,3.47
2018-09-12T08:05:56.272Z,2.80
2018-09-12T08:08:25.841Z,2.80
2018-09-12T08:10:56.528Z,3.97
2018-09-12T08:13:26.037Z,2.97
2018-09-12T08:15:55.374Z,3.17
2018-09-12T08:18:24.796Z,2.50
2018-09-12T08:20:54.419Z,3.00
2018-09-12T08:23:24.299Z,1.90
2018-09-12T08:25:53.911Z,2.70
2018-09-12T08:28:23.371Z,2.50
2018-09-12T08:30:54.874Z,2.40
2018-09-12T08:33:24.636Z,2.80
2018-09-12T08:35:54.088Z,2.30
2018-09-12T08:38:23.639Z,2.27
2018-09-12T08:40:53.009Z,2.30
2018-09-12T08:43:22.804Z,1.80
2018-09-12T08:45:52.294Z,2.77
2018-09-12T08:48:21.807Z,2.50
2018-09-12T08:50:52.140Z,2.53
2018-09-12T08:53:21.865Z,2.60
2018-09-12T08:55:51.315Z,1.93
2018-09-12T08:58:20.685Z,2.33
2018-09-12T09:00:49.987Z,2.70
2018-09-12T09:03:20.333Z,2.33
2018-09-12T09:05:50.601Z,1.90
2018-09-12T09:08:19.896Z,2.07
2018-09-12T09:10:49.288Z,2.70
2018-09-12T09:13:19.626Z,1.80
2018-09-12T09:15:48.947Z,2.80
2018-09-12T09:18:18.340Z,1.50
2018-09-12T09:20:47.588Z,1.90
2018-09-12T09:23:16.874Z,2.17
2018-09-12T09:25:46.227Z,2.57
2018-09-12T09:28:15.518Z,2.30
2018-09-12T09:30:44.819Z,1.70
2018-09-12T09:33:14.327Z,3.20
2018-09-12T09:35:43.751Z,1.87
2018-09-12T09:38:12.841Z,2.70
2018-09-12T09:40:42.642Z,2.20
2018-09-12T09:43:11.977Z,2.40
2018-09-12T09:45:41.346Z,2.10
2018-09-12T09:48:10.694Z,2.40
2018-09-12T09:50:39.825Z,2.23
2018-09-12T09:53:09.126Z,3.10
2018-09-12T09:55:38.573Z,2.73
2018-09-12T09:58:07.887Z,2.10
2018-09-12T10:00:43.866Z,2.47
2018-09-12T10:03:18.309Z,3.40
2018-09-12T10:05:52.973Z,2.00
2018-09-12T10:08:27.706Z,2.23
2018-09-12T10:10:57.906Z,3.03
2018-09-12T10:13:27.412Z,2.20
2018-09-12T10:15:57.430Z,2.40
2018-09-12T10:18:26.937Z,2.50
2018-09-12T10:20:56.442Z,2.70
2018-09-12T10:23:26.283Z,2.60
2018-09-12T10:25:56.505Z,2.00
2018-09-12T10:28:26.356Z,2.00
2018-09-12T10:30:55.801Z,2.50
2018-09-12T10:33:25.984Z,2.40
2018-09-12T10:35:55.465Z,1.60
2018-09-12T10:38:24.823Z,1.53
2018-09-12T10:40:54.864Z,1.70
2018-09-12T10:43:24.358Z,0.93
2018-09-12T10:45:53.744Z,1.40
2018-09-12T10:48:24.291Z,2.20
2018-09-12T10:50:54.473Z,1.60
2018-09-12T10:53:24.197Z,1.33
2018-09-12T10:55:55.449Z,1.43
2018-09-12T10:58:24.921Z,1.30
2018-09-12T11:00:54.478Z,1.40
2018-09-12T11:03:24.975Z,1.30
2018-09-12T11:05:54.533Z,1.73
2018-09-12T11:08:24.275Z,0.90
2018-09-12T11:10:54.240Z,1.10
2018-09-12T11:13:23.606Z,2.30
2018-09-12T11:15:53.237Z,1.83
2018-09-12T11:18:22.802Z,1.47
2018-09-12T11:20:52.758Z,1.10
2018-09-12T11:23:22.178Z,1.20
2018-09-12T11:25:52.259Z,1.37
2018-09-12T11:28:21.605Z,1.10
2018-09-12T11:30:50.973Z,1.10
2018-09-12T11:33:20.248Z,1.37
2018-09-12T11:35:49.528Z,1.33
2018-09-12T11:38:19.110Z,1.77
2018-09-12T11:40:50.309Z,1.23
2018-09-12T11:43:20.099Z,1.20
2018-09-12T11:45:49.413Z,1.50
2018-09-12T11:48:18.657Z,1.90
2018-09-12T11:50:48.021Z,1.27
2018-09-12T11:53:17.244Z,1.57
2018-09-12T11:55:47.414Z,2.23
2018-09-12T11:58:16.777Z,1.43
2018-09-12T12:00:46.106Z,1.53
2018-09-12T12:03:16.152Z,2.10
2018-09-12T12:05:46.000Z,1.87
2018-09-12T12:08:15.304Z,1.47
2018-09-12T12:10:45.312Z,1.70
2018-09-12T12:13:14.551Z,1.13
2018-09-12T12:15:43.930Z,1.33
2018-09-12T12:18:17.315Z,2.57
2018-09-12T12:20:46.597Z,1.00
2018-09-12T12:23:15.934Z,1.77
2018-09-12T12:25:46.850Z,1.27
2018-09-12T12:28:16.231Z,1.40
2018-09-12T12:30:45.861Z,1.60
2018-09-12T12:33:15.674Z,1.50
2018-09-12T12:35:44.898Z,1.40
2018-09-12T12:38:14.141Z,1.00
2018-09-12T12:40:43.478Z,1.40
2018-09-12T12:43:12.875Z,1.40
2018-09-12T12:45:42.195Z,2.00
2018-09-12T12:48:12.382Z,0.90
2018-09-12T12:50:41.605Z,1.23
2018-09-12T12:53:10.869Z,1.23
2018-09-12T12:55:41.096Z,1.10
2018-09-12T12:58:10.313Z,1.40
2018-09-12T13:00:39.541Z,0.90
2018-09-12T13:03:09.465Z,1.20
2018-09-12T13:05:38.810Z,0.93
2018-09-12T13:08:08.233Z,0.93
2018-09-12T13:10:38.332Z,1.03
2018-09-12T13:13:07.690Z,1.37
2018-09-12T13:15:37.062Z,0.87
2018-09-12T13:18:07.469Z,1.30
2018-09-12T13:20:36.785Z,1.63
2018-09-12T13:23:06.193Z,1.00
2018-09-12T13:25:35.910Z,1.10
2018-09-12T13:28:06.124Z,0.97
2018-09-12T13:30:35.482Z,0.97
2018-09-12T13:33:05.140Z,1.20
2018-09-12T13:35:34.423Z,1.47
2018-09-12T13:38:03.753Z,0.90
2018-09-12T13:40:33.453Z,0.80
2018-09-12T13:43:02.907Z,1.47
2018-09-12T13:45:32.677Z,1.10
2018-09-12T13:48:02.260Z,1.10
2018-09-12T13:50:31.673Z,1.57
2018-09-12T13:53:01.198Z,1.60
2018-09-12T13:55:30.629Z,1.03
2018-09-12T13:58:00.169Z,0.87
2018-09-12T14:00:31.978Z,1.13
2018-09-12T14:03:03.071Z,1.20
2018-09-12T14:05:33.235Z,1.33
2018-09-12T14:08:02.687Z,1.17
2018-09-12T14:10:32.201Z,1.87
2018-09-12T14:13:01.733Z,0.90
2018-09-12T14:15:31.346Z,1.03
2018-09-12T14:18:00.980Z,1.27
2018-09-12T14:20:30.349Z,1.00
2018-09-12T14:22:59.988Z,1.10
2018-09-12T14:25:31.483Z,1.20
2018-09-12T14:28:00.809Z,0.93
2018-09-12T14:30:30.345Z,1.00
2018-09-12T14:32:59.787Z,0.80
2018-09-12T14:35:29.538Z,1.13
2018-09-12T14:37:59.220Z,1.00
2018-09-12T14:40:30.473Z,1.17
2018-09-12T14:42:59.933Z,1.30
2018-09-12T14:45:29.442Z,1.03
2018-09-12T14:47:59.427Z,1.00
2018-09-12T14:50:29.303Z,1.33
2018-09-12T14:52:58.605Z,1.20
2018-09-12T14:55:28.337Z,1.90
2018-09-12T14:57:57.962Z,1.33
2018-09-12T15:00:29.478Z,0.70
2018-09-12T15:02:59.634Z,1.10
2018-09-12T15:05:29.211Z,1.43
2018-09-12T15:07:58.890Z,0.97
2018-09-12T15:10:28.579Z,1.00
2018-09-12T15:13:02.331Z,1.53
2018-09-12T15:15:31.937Z,1.60
2018-09-12T15:18:01.707Z,1.50
2018-09-12T15:20:32.004Z,1.13
2018-09-12T15:23:01.408Z,1.50
2018-09-12T15:25:30.810Z,1.63
2018-09-12T15:28:00.198Z,1.60
2018-09-12T15:30:29.805Z,1.53
2018-09-12T15:32:59.205Z,1.37
2018-09-12T15:35:29.006Z,1.23
2018-09-12T15:37:58.833Z,0.93
2018-09-12T15:40:29.547Z,1.70
2018-09-12T15:43:13.469Z,1.10
2018-09-12T15:45:43.183Z,1.30
2018-09-12T15:48:12.649Z,1.97
2018-09-12T15:50:42.541Z,1.83
2018-09-12T15:53:12.081Z,1.83
2018-09-12T15:55:41.771Z,1.57
2018-09-12T15:58:11.098Z,1.67
2018-09-12T16:00:40.332Z,1.80
2018-09-12T16:03:10.201Z,2.17
2018-09-12T16:05:39.544Z,1.20
2018-09-12T16:08:08.825Z,1.83
2018-09-12T16:10:39.393Z,1.20
2018-09-12T16:13:09.087Z,1.67
2018-09-12T16:15:38.371Z,1.50
2018-09-12T16:18:07.721Z,2.30
2018-09-12T16:20:36.989Z,1.60
2018-09-12T16:23:06.414Z,1.47
2018-09-12T16:25:35.894Z,1.60
2018-09-12T16:28:05.269Z,1.20
2018-09-12T16:30:34.569Z,1.60
2018-09-12T16:33:04.148Z,2.07
2018-09-12T16:35:33.419Z,1.33
2018-09-12T16:38:03.054Z,1.77
2018-09-12T16:40:32.581Z,1.70
2018-09-12T16:43:02.211Z,1.50
2018-09-12T16:45:31.720Z,1.47
2018-09-12T16:48:01.674Z,1.83
2018-09-12T16:50:31.332Z,1.33
2018-09-12T16:53:00.878Z,2.20
2018-09-12T16:55:30.444Z,1.90
2018-09-12T16:57:59.996Z,1.73
2018-09-12T17:00:30.177Z,1.20
2018-09-12T17:02:59.884Z,1.80
2018-09-12T17:05:29.677Z,1.60
2018-09-12T17:07:59.608Z,2.40
2018-09-12T17:10:29.622Z,1.13
2018-09-12T17:12:59.545Z,2.20
2018-09-12T17:15:29.405Z,1.20
2018-09-12T17:17:59.329Z,1.87
2018-09-12T17:20:31.166Z,2.50
2018-09-12T17:23:00.764Z,1.73
2018-09-12T17:25:30.434Z,1.37
2018-09-12T17:28:00.205Z,1.70
2018-09-12T17:30:29.659Z,2.73
2018-09-12T17:32:59.377Z,1.43
2018-09-12T17:35:29.537Z,1.60
2018-09-12T17:37:59.464Z,1.60
2018-09-12T17:40:29.013Z,1.80
2018-09-12T17:42:58.822Z,1.57
2018-09-12T17:45:28.492Z,2.20
2018-09-12T17:47:57.984Z,1.67
2018-09-12T17:50:27.624Z,2.03
2018-09-12T17:52:58.500Z,1.70
2018-09-12T17:55:28.492Z,1.70
2018-09-12T17:57:58.196Z,1.70
2018-09-12T18:00:28.210Z,1.43
2018-09-12T18:02:59.225Z,2.63
2018-09-12T18:05:29.127Z,2.30
2018-09-12T18:07:58.949Z,3.20
2018-09-12T18:10:28.898Z,2.07
2018-09-12T18:12:59.051Z,2.13
2018-09-12T18:15:28.928Z,4.00
2018-09-12T18:17:58.825Z,2.13
2018-09-12T18:20:28.783Z,2.13
2018-09-12T18:22:58.501Z,2.50
2018-09-12T18:25:29.309Z,1.80
2018-09-12T18:28:00.036Z,2.30
2018-09-12T18:30:31.281Z,2.57
2018-09-12T18:33:00.924Z,2.57
2018-09-12T18:35:31.301Z,2.60
2018-09-12T18:38:01.090Z,1.20
2018-09-12T18:40:31.305Z,1.97
2018-09-12T18:43:01.525Z,3.40
2018-09-12T18:45:31.043Z,2.67
2018-09-12T18:48:00.421Z,1.90
2018-09-12T18:50:29.942Z,2.10
2018-09-12T18:53:00.022Z,2.33
2018-09-12T18:55:29.583Z,1.97
2018-09-12T18:57:59.438Z,2.50
2018-09-12T19:00:29.073Z,1.97
2018-09-12T19:02:59.936Z,2.50
2018-09-12T19:05:31.099Z,2.90
2018-09-12T19:08:00.819Z,1.67
2018-09-12T19:10:30.530Z,2.13
2018-09-12T19:13:01.059Z,1.97
2018-09-12T19:15:31.630Z,2.03
2018-09-12T19:18:01.685Z,3.20
2018-09-12T19:20:31.732Z,1.97
2018-09-12T19:23:01.339Z,1.90
2018-09-12T19:25:31.145Z,1.93
2018-09-12T19:28:00.825Z,2.40
2018-09-12T19:30:30.980Z,3.03
2018-09-12T19:33:00.620Z,2.63
2018-09-12T19:35:30.447Z,2.03
2018-09-12T19:38:00.132Z,2.70
2018-09-12T19:40:30.122Z,2.93
2018-09-12T19:42:59.878Z,2.37
2018-09-12T19:45:29.536Z,3.10
2018-09-12T19:47:59.200Z,2.60
2018-09-12T19:50:29.099Z,2.90
2018-09-12T19:52:59.137Z,2.77
2018-09-12T19:55:28.763Z,2.77
2018-09-12T19:57:58.956Z,2.90
2018-09-12T20:00:28.936Z,2.23
2018-09-12T20:02:58.528Z,2.93
2018-09-12T20:05:28.193Z,2.73
2018-09-12T20:07:57.888Z,3.13
2018-09-12T20:10:28.511Z,2.53
2018-09-12T20:12:58.451Z,2.60
2018-09-12T20:15:28.214Z,2.57
2018-09-12T20:17:58.884Z,2.43
2018-09-12T20:20:28.653Z,3.07
2018-09-12T20:22:58.745Z,3.07
2018-09-12T20:25:30.225Z,2.80
2018-09-12T20:27:59.800Z,2.40
2018-09-12T20:30:29.582Z,3.30
2018-09-12T20:33:00.701Z,1.93
2018-09-12T20:35:30.761Z,2.23
2018-09-12T20:38:00.396Z,2.30
2018-09-12T20:40:30.351Z,3.33
2018-09-12T20:43:00.084Z,3.00
2018-09-12T20:45:29.952Z,2.17
2018-09-12T20:47:59.506Z,2.63
2018-09-12T20:50:29.092Z,2.17
2018-09-12T20:52:59.000Z,2.33
2018-09-12T20:55:29.713Z,3.90
2018-09-12T20:58:00.357Z,2.40
2018-09-12T21:00:30.069Z,2.10
2018-09-12T21:02:59.766Z,1.83
2018-09-12T21:05:30.083Z,2.00
2018-09-12T21:07:59.733Z,2.10
2018-09-12T21:10:30.431Z,2.00
2018-09-12T21:13:01.059Z,3.00
2018-09-12T21:15:30.482Z,2.20
2018-09-12T21:18:01.685Z,2.70
2018-09-12T21:20:31.009Z,2.60
2018-09-12T21:23:00.562Z,2.13
2018-09-12T21:25:30.729Z,2.40
2018-09-12T21:28:01.260Z,3.00
2018-09-12T21:30:30.913Z,3.50
2018-09-12T21:33:00.631Z,3.20
2018-09-12T21:35:30.122Z,2.50
2018-09-12T21:38:06.162Z,3.10
2018-09-12T21:40:35.687Z,2.43
2018-09-12T21:43:05.048Z,2.27
2018-09-12T21:45:34.655Z,2.07
2018-09-12T21:48:04.031Z,2.63
2018-09-12T21:50:34.026Z,3.00
2018-09-12T21:53:05.049Z,3.70
2018-09-12T21:55:35.083Z,2.43
2018-09-12T21:58:04.749Z,2.77
2018-09-12T22:00:34.607Z,3.40
2018-09-12T22:03:03.991Z,2.73
2018-09-12T22:05:33.408Z,3.00
2018-09-12T22:08:03.482Z,3.50
2018-09-12T22:10:32.883Z,2.97
2018-09-12T22:13:02.326Z,2.50
2018-09-12T22:15:32.205Z,3.27
2018-09-12T22:18:03.321Z,2.77
2018-09-12T22:20:33.488Z,3.43
2018-09-12T22:23:03.030Z,3.10
2018-09-12T22:25:32.585Z,2.80
2018-09-12T22:28:02.924Z,4.00
2018-09-12T22:30:32.252Z,3.10
2018-09-12T22:33:01.813Z,3.17
2018-09-12T22:35:31.432Z,3.07
2018-09-12T22:38:00.941Z,3.67
2018-09-12T22:40:30.630Z,2.97
2018-09-12T22:43:00.204Z,3.80
2018-09-12T22:45:29.761Z,2.60
2018-09-12T22:47:59.303Z,2.33
2018-09-12T22:50:29.202Z,2.60
2018-09-12T22:52:58.668Z,3.33
2018-09-12T22:55:28.076Z,3.60
2018-09-12T22:57:57.849Z,3.10
2018-09-12T23:00:27.619Z,2.57
2018-09-12T23:02:57.144Z,3.90
2018-09-12T23:05:27.448Z,3.23
2018-09-12T23:07:56.874Z,3.60
2018-09-12T23:10:26.378Z,3.47
2018-09-12T23:12:55.907Z,3.97
2018-09-12T23:15:27.385Z,6.33
2018-09-12T23:17:57.158Z,3.47
2018-09-12T23:20:26.662Z,3.40
2018-09-12T23:22:56.105Z,3.43
2018-09-12T23:25:25.484Z,2.80
2018-09-12T23:29:19.247Z,3.00
2018-09-12T23:31:48.668Z,3.20
2018-09-12T23:34:18.447Z,2.93
2018-09-12T23:36:47.812Z,3.70
2018-09-12T23:39:17.099Z,3.10
2018-09-12T23:41:46.409Z,2.70
2018-09-12T23:44:15.738Z,3.40
2018-09-12T23:46:45.033Z,2.30
2018-09-12T23:49:14.328Z,4.20
2018-09-12T23:51:44.446Z,2.53
2018-09-12T23:54:13.780Z,3.70
2018-09-12T23:56:43.133Z,2.50
2018-09-12T23:59:12.347Z,3.33
